| Date | Time | Temp. (oF) | Dew Point (oF) | Rel. Hum. (%) | Press. (in.) | Wind Dir. | Wind Speed (mph) | Hourly Rainfall (in.) |
|
|---|---|---|---|---|---|---|---|---|---|
| 1 | 10/24 | 00:00 | 67 | 64 | 92 | 29.77 | SSE | 6 | 0.00 |
| 2 | 10/23 | 23:00 | 68 | 64 | 89 | 29.77 | S | 4 | 0.00 |
| 3 | 10/23 | 22:00 | 68 | 63 | 85 | 29.78 | S | 6 | 0.00 |
| 4 | 10/23 | 21:00 | 68 | 62 | 83 | 29.78 | SW | 7 | 0.00 |
| 5 | 10/23 | 20:00 | 68 | 63 | 85 | 29.78 | SSE | 1 | 0.00 |
| 6 | 10/23 | 19:00 | 71 | 63 | 76 | 29.78 | SSE | 6 | 0.00 |
| 7 | 10/23 | 18:00 | 72 | 62 | 73 | 29.78 | S | 7 | 0.00 |
| 8 | 10/23 | 17:00 | 73 | 63 | 72 | 29.79 | SSE | 7 | 0.00 |
| 9 | 10/23 | 16:00 | 73 | 63 | 72 | 29.79 | SE | 5 | 0.00 |
| 10 | 10/23 | 15:00 | 72 | 63 | 74 | 29.81 | SSE | 7 | 0.00 |
| 11 | 10/23 | 14:00 | 69 | 62 | 81 | 29.85 | S | 7 | 0.00 |
| 12 | 10/23 | 13:00 | 65 | 61 | 89 | 29.88 | SSE | 3 | 0.00 |
| 13 | 10/23 | 12:00 | 62 | 60 | 95 | 29.94 | SSE | 5 | 0.00 |
| 14 | 10/23 | 11:00 | 61 | 59 | 95 | 29.96 | ESE | 5 | 0.00 |
| 15 | 10/23 | 10:00 | 59 | 58 | 97 | 29.96 | SE | 8 | 0.00 |
| 16 | 10/23 | 09:00 | 56 | 54 | 95 | 29.98 | ENE | 1 | 0.00 |
| 17 | 10/23 | 08:00 | 53 | 49 | 89 | 29.99 | ESE | 0 | 0.00 |
| 18 | 10/23 | 07:00 | 54 | 50 | 87 | 29.99 | NE | 1 | 0.00 |
| 19 | 10/23 | 06:00 | 55 | 50 | 85 | 30.00 | ENE | 3 | 0.00 |
| 20 | 10/23 | 05:00 | 55 | 49 | 83 | 29.99 | ENE | 4 | 0.00 |
| 21 | 10/23 | 04:00 | 57 | 50 | 80 | 30.00 | NE | 2 | 0.00 |
| 22 | 10/23 | 03:00 | 58 | 50 | 77 | 30.00 | NE | 0 | 0.00 |
| 23 | 10/23 | 02:00 | 59 | 51 | 76 | 29.99 | NE | 4 | 0.00 |
| 24 | 10/23 | 01:00 | 60 | 53 | 79 | 30.00 | NE | 4 | 0.00 |